Grand Forks, Canada
Current Conditions -  °F | °C
As of 7:00 PM on Saturday 25 Oct 2014 (Local Time) from CYCG Reporting Station
Rain Showers Rain Showers  
Wind Chill: 46°   Ceiling: 6500
Heat Index: 46°   Visibility: 15mi
Dew Point: 45°   Wind: 3mph
Humidity: 93%   Direction: NA
Pressure: 29.56"   Gusts: NA
Location:  49.05°N, 118.47°W
Report Text: CYCG 260200Z VRB03KT 15SM -SHRA FEW025 BKN065 OVC100 08/07 A2956 RMK SC1SC6AC1 PRESRR SLP016
Loading
Personal Weather Stations






























Interactive Weather Map
Tropical Storm Tracking
New forecast layout! Learn more

10-Day Weather Forecast

Advertisements
Track Severe Weather on mobile